Time;durP1;ratioP1;P1;durP2;ratioP2;P2;SDS_P1;SDS_P2;PMS_P1;PMS_P2;Temp;Humidity;BMP_temperature;BMP_pressure;BME280_temperature;BME280_humidity;BME280_pressure;Samples;Min_cycle;Max_cycle;Signal;HPM_P1;HPM_P2
2022/01/15 00:02:05;;;;;;;10.70;5.57;;;;;;;4.31;86.70;95012.72;5092717;28;20209;-82
2022/01/15 00:04:34;;;;;;;13.17;6.77;;;;;;;4.31;86.85;95028.16;5091102;28;20249;-82
2022/01/15 00:07:02;;;;;;;12.80;6.10;;;;;;;4.27;87.75;95016.59;5091811;28;20235;-82
2022/01/15 00:09:30;;;;;;;10.50;6.17;;;;;;;4.29;87.83;95017.25;5097687;28;20209;-79
2022/01/15 00:11:58;;;;;;;12.03;6.50;;;;;;;4.29;87.73;95030.13;5110097;28;20232;-90
2022/01/15 00:14:32;;;;;;;13.03;6.73;;;;;;;4.30;88.34;95036.06;5083406;28;20208;-80
2022/01/15 00:17:07;;;;;;;16.80;7.03;;;;;;;4.27;88.25;95018.41;5090829;28;20307;-81
2022/01/15 00:19:42;;;;;;;12.97;7.43;;;;;;;4.24;88.88;95011.03;5090722;28;20196;-78
2022/01/15 00:22:12;;;;;;;10.67;6.50;;;;;;;4.21;88.70;95009.59;5090459;28;20618;-78
2022/01/15 00:24:41;;;;;;;11.93;6.30;;;;;;;4.20;89.37;95004.59;5089393;28;20299;-79
2022/01/15 00:27:09;;;;;;;9.57;5.47;;;;;;;4.23;89.30;95009.41;5090938;28;20193;-78
2022/01/15 00:29:39;;;;;;;12.87;6.67;;;;;;;4.24;89.63;95024.66;5089058;28;20675;-79
2022/01/15 00:32:09;;;;;;;12.80;5.77;;;;;;;4.25;89.42;95028.03;5089630;28;20196;-79
2022/01/15 00:34:36;;;;;;;10.83;5.80;;;;;;;4.27;90.53;95033.84;5084931;28;20201;-78
2022/01/15 00:37:04;;;;;;;13.43;6.67;;;;;;;4.33;90.10;95033.94;5081110;28;20220;-78
2022/01/15 00:39:34;;;;;;;12.33;6.70;;;;;;;4.23;90.02;95027.41;5089656;28;20462;-78
2022/01/15 00:42:05;;;;;;;10.67;6.17;;;;;;;4.21;89.68;95019.88;5089240;28;20656;-77
2022/01/15 00:44:35;;;;;;;10.70;6.63;;;;;;;4.29;90.53;95042.16;5088317;28;20200;-78
2022/01/15 00:47:04;;;;;;;9.73;6.30;;;;;;;4.31;90.31;95059.03;5089132;28;20209;-77
2022/01/15 00:49:35;;;;;;;9.53;6.70;;;;;;;4.35;90.37;95062.06;5088761;28;20254;-77
2022/01/15 00:52:02;;;;;;;10.27;6.50;;;;;;;4.36;90.24;95046.47;5089586;28;20283;-78
2022/01/15 00:54:30;;;;;;;11.83;6.70;;;;;;;4.37;90.19;95042.13;5087986;28;20659;-77
2022/01/15 00:56:57;;;;;;;11.00;6.30;;;;;;;4.23;90.60;95032.56;5088492;28;20634;-79
2022/01/15 00:59:26;;;;;;;11.33;6.60;;;;;;;4.28;90.88;95038.00;5087062;28;20203;-78
2022/01/15 01:01:53;;;;;;;10.17;6.20;;;;;;;4.23;90.83;95024.84;5089048;28;20204;-78
2022/01/15 01:04:22;;;;;;;9.60;5.60;;;;;;;4.23;90.72;95038.50;5086987;28;20656;-79
2022/01/15 01:06:52;;;;;;;10.20;6.27;;;;;;;4.24;91.48;95026.47;5087191;28;20208;-78
2022/01/15 01:09:21;;;;;;;12.47;6.40;;;;;;;4.19;91.13;95026.13;5088017;28;20218;-78
2022/01/15 01:11:55;;;;;;;11.33;6.87;;;;;;;4.14;91.47;95031.81;5088474;28;20205;-78
2022/01/15 01:20:08;;;;;;;11.63;6.60;;;;;;;4.15;91.76;95027.47;5088362;28;20210;-78
2022/01/15 01:22:56;;;;;;;10.90;6.37;;;;;;;4.13;91.14;95025.06;5087900;28;20204;-80
2022/01/15 01:25:27;;;;;;;10.73;6.40;;;;;;;4.10;91.04;95027.19;5088724;28;20283;-81
2022/01/15 01:28:02;;;;;;;12.83;7.13;;;;;;;4.09;91.34;95021.22;5089304;28;20204;-80
2022/01/15 01:30:37;;;;;;;13.83;6.83;;;;;;;4.09;91.20;95023.81;5089007;28;20236;-80
2022/01/15 01:33:17;;;;;;;9.43;6.10;;;;;;;4.05;91.81;95011.44;5089160;28;20627;-80
2022/01/15 01:35:49;;;;;;;11.23;6.63;;;;;;;3.95;91.49;95002.16;5088869;28;20209;-81
2022/01/15 01:38:26;;;;;;;14.60;6.90;;;;;;;4.08;91.12;95021.38;5088799;28;20626;-81
2022/01/15 01:40:57;;;;;;;13.77;6.87;;;;;;;4.09;91.81;95018.66;5088297;28;20230;-80
2022/01/15 01:43:44;;;;;;;15.17;7.67;;;;;;;4.09;91.57;95028.94;5088736;28;20447;-80
2022/01/15 01:46:31;;;;;;;13.47;6.67;;;;;;;4.12;90.47;95018.31;5089445;28;20728;-80
2022/01/15 01:49:02;;;;;;;10.13;6.37;;;;;;;4.08;90.35;95008.53;5084226;28;20200;-80
2022/01/15 01:51:33;;;;;;;10.73;6.23;;;;;;;4.05;90.96;95006.28;5089298;28;20273;-80
2022/01/15 01:54:06;;;;;;;11.13;6.50;;;;;;;4.04;90.88;95009.84;5082014;28;20193;-80
2022/01/15 01:56:35;;;;;;;11.63;7.07;;;;;;;4.05;89.85;95011.44;5088338;28;20213;-79
2022/01/15 01:59:08;;;;;;;8.97;5.43;;;;;;;3.90;89.00;94994.16;5087670;28;20240;-78
2022/01/15 02:01:36;;;;;;;10.53;5.77;;;;;;;3.98;89.19;95006.19;5088385;28;20192;-77
2022/01/15 02:04:05;;;;;;;11.50;5.53;;;;;;;3.88;88.70;94993.53;5088085;28;20209;-78
2022/01/15 02:06:35;;;;;;;9.73;5.33;;;;;;;3.86;89.27;95002.38;5087487;28;20208;-78
2022/01/15 02:09:07;;;;;;;10.43;6.00;;;;;;;3.78;90.25;94990.34;5088069;28;20208;-78
2022/01/15 02:11:34;;;;;;;9.53;5.77;;;;;;;3.74;90.34;94991.69;5089131;28;20204;-78
2022/01/15 02:14:04;;;;;;;11.33;6.17;;;;;;;3.73;90.26;94995.22;5088652;28;20208;-78
2022/01/15 02:16:32;;;;;;;11.27;6.77;;;;;;;3.85;89.38;94991.31;5087727;28;20250;-81
2022/01/15 02:19:01;;;;;;;13.90;7.33;;;;;;;3.80;89.88;94990.22;5081772;28;20265;-80
2022/01/15 02:24:16;;;;;;;13.60;6.50;;;;;;;3.74;90.20;94980.59;5082633;28;20196;-81
2022/01/15 02:26:45;;;;;;;11.00;5.90;;;;;;;3.70;90.28;95003.25;5087428;28;20234;-81
2022/01/15 02:29:14;;;;;;;9.83;5.70;;;;;;;3.77;90.67;95005.97;5088504;28;20229;-81
2022/01/15 02:31:43;;;;;;;10.13;5.87;;;;;;;3.81;89.48;94991.81;5088921;28;20253;-81
2022/01/15 02:34:10;;;;;;;12.10;5.87;;;;;;;3.79;89.22;94984.25;5088211;28;20300;-81
2022/01/15 02:36:40;;;;;;;9.07;5.47;;;;;;;4.02;87.26;95002.28;5081475;28;20254;-85
2022/01/15 02:39:08;;;;;;;9.63;5.73;;;;;;;4.01;87.33;94998.16;5088448;28;20201;-78
2022/01/15 02:41:38;;;;;;;11.63;6.10;;;;;;;3.87;86.61;94989.34;5088334;28;20197;-79
2022/01/15 02:44:09;;;;;;;12.77;6.00;;;;;;;4.04;86.70;95017.56;5087788;28;20667;-79
2022/01/15 02:48:00;;;;;;;9.80;6.13;;;;;;;4.09;86.28;95023.81;5092002;28;20193;-78
2022/01/15 02:49:35;;;;;;;8.43;5.00;;;;;;;4.18;84.84;95015.09;5085551;28;20197;-78
2022/01/15 02:52:05;;;;;;;11.27;6.30;;;;;;;4.01;85.49;95005.84;5091432;28;20663;-77
2022/01/15 02:54:35;;;;;;;10.83;6.30;;;;;;;4.07;85.49;95010.28;5090729;28;20197;-78
2022/01/15 02:57:04;;;;;;;11.67;6.63;;;;;;;3.95;85.07;94999.59;5090682;28;20224;-78
2022/01/15 02:59:32;;;;;;;9.33;5.50;;;;;;;3.99;85.72;95023.19;5091739;28;20236;-79
2022/01/15 03:02:01;;;;;;;11.33;6.37;;;;;;;4.03;85.18;95023.66;5092063;28;20280;-77
2022/01/15 03:04:28;;;;;;;12.50;6.43;;;;;;;4.04;85.10;95026.06;5089642;28;20776;-78
2022/01/15 03:06:58;;;;;;;10.20;6.30;;;;;;;4.08;84.75;95031.66;5090493;28;20230;-77
2022/01/15 03:09:27;;;;;;;11.13;6.17;;;;;;;3.94;83.67;95023.72;5090806;28;20638;-79
2022/01/15 03:12:00;;;;;;;12.17;6.87;;;;;;;3.89;83.95;95027.75;5084473;28;20200;-77
2022/01/15 03:14:30;;;;;;;11.10;6.20;;;;;;;3.89;83.71;95028.56;5090835;28;20230;-78
2022/01/15 03:16:59;;;;;;;11.27;6.53;;;;;;;3.91;83.19;95010.38;5088034;28;20305;-78
2022/01/15 03:19:28;;;;;;;13.27;6.73;;;;;;;3.84;83.35;95041.09;5090888;28;20291;-78
2022/01/15 03:21:58;;;;;;;13.00;6.70;;;;;;;3.87;82.22;95024.53;5090238;28;20279;-78
2022/01/15 03:24:28;;;;;;;14.13;7.80;;;;;;;3.80;82.42;95006.44;5090141;28;20601;-78
2022/01/15 03:26:56;;;;;;;17.83;7.70;;;;;;;3.70;82.33;95026.38;5090080;28;20672;-77
2022/01/15 03:29:25;;;;;;;16.57;7.93;;;;;;;3.55;82.84;95009.28;5089737;28;20256;-76
2022/01/15 03:31:54;;;;;;;15.97;7.67;;;;;;;3.62;82.32;95030.75;5090726;28;20291;-78
2022/01/15 03:34:22;;;;;;;17.30;8.73;;;;;;;3.63;82.52;95037.50;5090137;28;20220;-78
2022/01/15 03:36:50;;;;;;;15.00;7.10;;;;;;;3.61;82.91;95024.81;5090811;28;20714;-79
2022/01/15 03:39:18;;;;;;;16.50;8.70;;;;;;;3.58;82.86;95042.34;5090249;28;20226;-78
2022/01/15 03:41:48;;;;;;;13.80;7.17;;;;;;;3.55;82.79;95042.66;5090303;28;20644;-78
2022/01/15 03:44:16;;;;;;;13.50;7.27;;;;;;;3.55;82.85;95047.81;5089994;28;20562;-78
2022/01/15 03:46:44;;;;;;;17.57;7.83;;;;;;;3.54;83.24;95044.44;5090494;28;20206;-79
2022/01/15 03:49:12;;;;;;;11.77;6.93;;;;;;;3.52;83.63;95043.00;5090258;28;20205;-79
2022/01/15 03:51:41;;;;;;;12.87;7.33;;;;;;;3.61;83.23;95049.72;5090447;28;20201;-80
2022/01/15 03:54:09;;;;;;;13.37;7.70;;;;;;;3.64;83.39;95052.75;5090020;28;20235;-78
2022/01/15 03:56:38;;;;;;;11.73;6.60;;;;;;;3.70;83.10;95048.69;5088934;28;20212;-79
2022/01/15 03:59:08;;;;;;;11.63;6.73;;;;;;;3.77;83.40;95060.75;5090722;28;20203;-78
2022/01/15 04:01:37;;;;;;;12.93;7.57;;;;;;;3.74;83.32;95075.69;5090052;28;20244;-79
2022/01/15 04:04:05;;;;;;;12.93;6.77;;;;;;;3.80;83.44;95054.47;5090187;28;20208;-77
2022/01/15 04:06:33;;;;;;;15.97;7.93;;;;;;;3.79;83.48;95068.28;5088732;28;20208;-78
2022/01/15 04:09:01;;;;;;;16.57;7.83;;;;;;;3.79;83.64;95069.06;5090279;28;20292;-78
2022/01/15 04:11:29;;;;;;;12.73;7.67;;;;;;;3.81;83.50;95089.50;5090032;28;20201;-78
2022/01/15 04:13:57;;;;;;;17.57;8.50;;;;;;;3.81;83.77;95085.13;5089986;28;20224;-80
2022/01/15 04:16:28;;;;;;;13.60;7.73;;;;;;;3.79;83.64;95091.41;5089885;28;20263;-79
2022/01/15 04:18:57;;;;;;;13.23;6.90;;;;;;;3.72;84.27;95075.06;5089990;28;20224;-80
2022/01/15 04:21:25;;;;;;;13.93;7.47;;;;;;;3.56;84.74;95095.63;5090246;28;20540;-80
2022/01/15 04:23:54;;;;;;;14.40;7.87;;;;;;;3.65;84.65;95099.78;5089033;28;20208;-79
2022/01/15 04:26:25;;;;;;;15.57;8.33;;;;;;;3.62;84.87;95100.94;5089387;28;20290;-79
2022/01/15 04:28:54;;;;;;;15.10;8.53;;;;;;;3.61;84.67;95113.97;5088686;28;20250;-78
2022/01/15 04:31:21;;;;;;;18.07;9.30;;;;;;;3.52;85.46;95117.50;5089294;28;20200;-79
2022/01/15 04:33:51;;;;;;;23.13;9.27;;;;;;;3.52;84.77;95118.28;5089783;28;20291;-79
2022/01/15 04:36:19;;;;;;;16.27;7.73;;;;;;;3.54;85.25;95108.66;5089216;28;20231;-80
2022/01/15 04:38:47;;;;;;;17.87;9.37;;;;;;;3.46;85.96;95107.88;5088591;28;20228;-80
2022/01/15 04:41:14;;;;;;;17.83;9.37;;;;;;;3.42;86.15;95108.19;5089149;28;20213;-78
2022/01/15 04:43:43;;;;;;;16.07;8.53;;;;;;;3.44;86.13;95105.44;5083582;28;20275;-77
2022/01/15 04:46:11;;;;;;;18.80;10.10;;;;;;;3.35;86.06;95096.97;5089027;28;20236;-77
2022/01/15 04:48:39;;;;;;;17.53;9.53;;;;;;;3.41;86.51;95100.63;5088134;28;20269;-77
2022/01/15 04:51:10;;;;;;;15.50;9.10;;;;;;;3.30;87.33;95109.50;5088931;28;20211;-77
2022/01/15 04:53:40;;;;;;;15.23;8.77;;;;;;;3.29;87.96;95128.41;5081459;28;20208;-77
2022/01/15 04:56:08;;;;;;;17.53;9.80;;;;;;;3.40;87.83;95106.75;5082959;28;20312;-76
2022/01/15 04:58:36;;;;;;;20.10;9.17;;;;;;;3.35;87.68;95111.56;5087793;28;20259;-78
2022/01/15 05:01:04;;;;;;;18.50;10.30;;;;;;;3.29;88.98;95117.38;5087671;28;20241;-78
2022/01/15 05:03:33;;;;;;;17.40;9.97;;;;;;;3.29;89.26;95120.72;5088767;28;20205;-78
2022/01/15 05:06:01;;;;;;;19.00;10.03;;;;;;;3.21;90.15;95115.59;5089010;28;20292;-78
2022/01/15 05:08:31;;;;;;;17.43;9.87;;;;;;;3.19;90.38;95127.00;5087227;28;20990;-78
2022/01/15 05:11:11;;;;;;;18.80;10.73;;;;;;;3.15;90.94;95141.91;5088975;28;20207;-78
2022/01/15 05:13:39;;;;;;;18.77;10.13;;;;;;;3.13;91.76;95127.63;5088848;28;20660;-78
2022/01/15 05:16:08;;;;;;;18.33;10.37;;;;;;;3.12;91.99;95139.66;5087887;28;20690;-78
2022/01/15 05:18:36;;;;;;;17.60;9.87;;;;;;;2.95;92.37;95119.28;5088660;28;20228;-78
2022/01/15 05:21:05;;;;;;;17.43;10.30;;;;;;;2.97;93.09;95136.16;5088486;28;20211;-77
2022/01/15 05:23:34;;;;;;;15.47;9.67;;;;;;;2.93;93.47;95131.47;5087865;28;20305;-76
2022/01/15 05:26:02;;;;;;;21.73;11.20;;;;;;;2.91;93.97;95130.84;5088575;28;20212;-77
2022/01/15 05:28:31;;;;;;;22.33;10.90;;;;;;;2.84;94.31;95153.75;5087483;28;20249;-77
2022/01/15 05:31:00;;;;;;;22.27;10.30;;;;;;;2.79;94.69;95151.69;5088453;28;20598;-77
2022/01/15 05:33:28;;;;;;;25.07;11.27;;;;;;;2.86;94.65;95149.25;5088166;28;20201;-77
2022/01/15 05:35:55;;;;;;;20.53;11.07;;;;;;;2.80;94.77;95158.41;5087637;28;20596;-77
2022/01/15 05:38:23;;;;;;;19.23;10.73;;;;;;;2.88;94.78;95159.38;5087493;28;20238;-77
2022/01/15 05:40:52;;;;;;;20.60;11.73;;;;;;;2.86;95.05;95154.41;5088445;28;20698;-76
2022/01/15 05:43:20;;;;;;;20.63;11.30;;;;;;;2.93;94.49;95152.00;5088890;28;20240;-76
2022/01/15 05:45:48;;;;;;;19.57;11.00;;;;;;;2.94;94.42;95174.97;5088331;28;20201;-78
2022/01/15 05:48:17;;;;;;;21.63;11.93;;;;;;;2.95;94.34;95166.28;5087186;28;20203;-77
2022/01/15 05:50:46;;;;;;;19.53;11.40;;;;;;;2.89;94.66;95164.34;5087553;28;20222;-77
2022/01/15 05:53:15;;;;;;;20.63;10.77;;;;;;;2.89;94.94;95179.75;5082084;28;20197;-78
2022/01/15 05:55:43;;;;;;;24.17;11.60;;;;;;;2.94;95.06;95174.16;5088101;28;20291;-77
2022/01/15 05:58:12;;;;;;;22.33;11.93;;;;;;;2.94;95.06;95171.59;5087704;28;20341;-77
2022/01/15 06:00:40;;;;;;;21.77;12.03;;;;;;;2.94;95.03;95187.78;5087332;28;20255;-79
2022/01/15 06:03:09;;;;;;;20.47;11.33;;;;;;;2.96;95.44;95183.31;5088329;28;20688;-81
2022/01/15 06:05:37;;;;;;;21.50;11.67;;;;;;;2.98;95.29;95193.41;5088332;28;20577;-80
2022/01/15 06:08:06;;;;;;;24.90;13.63;;;;;;;2.98;95.46;95191.63;5084269;28;20202;-79
2022/01/15 06:10:36;;;;;;;22.23;12.53;;;;;;;2.99;95.25;95200.16;5085946;28;20213;-81
2022/01/15 06:13:04;;;;;;;22.00;12.60;;;;;;;2.90;95.83;95203.66;5087914;28;20211;-79
2022/01/15 06:15:33;;;;;;;24.20;13.07;;;;;;;2.87;96.43;95199.63;5089807;28;20200;-81
2022/01/15 06:18:02;;;;;;;24.67;12.77;;;;;;;2.87;96.29;95202.22;5088125;28;20224;-83
2022/01/15 06:20:30;;;;;;;26.17;13.33;;;;;;;2.76;97.01;95216.16;5088836;28;20255;-79
2022/01/15 06:23:00;;;;;;;26.13;13.53;;;;;;;2.75;97.48;95203.44;5090282;28;20194;-79
2022/01/15 06:25:29;;;;;;;26.60;13.73;;;;;;;2.76;97.10;95197.38;5091874;28;20284;-77
2022/01/15 06:27:56;;;;;;;24.10;13.50;;;;;;;2.77;97.61;95197.19;5092673;28;20207;-77
2022/01/15 06:30:25;;;;;;;24.57;13.40;;;;;;;2.74;97.60;95196.75;5090785;28;20641;-77
2022/01/15 06:32:54;;;;;;;28.37;14.00;;;;;;;2.71;98.15;95204.75;5091245;28;20208;-78
2022/01/15 06:35:22;;;;;;;25.33;14.53;;;;;;;2.74;98.00;95215.47;5091340;28;20211;-78
2022/01/15 06:37:52;;;;;;;23.70;13.83;;;;;;;2.79;97.85;95227.84;5091590;28;20228;-78
2022/01/15 06:40:20;;;;;;;35.03;16.43;;;;;;;2.73;98.25;95224.16;5090745;28;20300;-79
2022/01/15 06:42:48;;;;;;;30.43;16.87;;;;;;;2.77;98.16;95230.56;5090838;28;20240;-79
2022/01/15 06:45:16;;;;;;;30.67;16.40;;;;;;;2.81;98.05;95231.06;5091480;28;20202;-79
2022/01/15 06:47:43;;;;;;;36.70;17.20;;;;;;;2.81;97.71;95244.69;5091693;28;20306;-79
2022/01/15 06:50:13;;;;;;;37.53;17.57;;;;;;;2.83;98.09;95242.78;5092396;28;20235;-79
2022/01/15 06:52:41;;;;;;;36.80;18.63;;;;;;;2.82;98.05;95242.94;5090710;28;20212;-79
2022/01/15 06:55:12;;;;;;;37.67;18.13;;;;;;;2.83;98.06;95249.66;5091175;28;20223;-78
2022/01/15 06:57:41;;;;;;;32.43;17.70;;;;;;;2.87;98.00;95240.69;5085943;28;20208;-79
2022/01/15 07:00:12;;;;;;;36.87;18.57;;;;;;;2.82;98.15;95242.94;5087349;28;20207;-80
2022/01/15 07:02:40;;;;;;;33.57;18.93;;;;;;;2.74;98.33;95225.75;5085949;28;20335;-79
2022/01/15 07:05:10;;;;;;;35.37;19.70;;;;;;;2.90;98.29;95242.97;5091406;28;20212;-75
2022/01/15 07:07:44;;;;;;;33.33;17.90;;;;;;;2.97;97.47;95245.72;5089310;28;20232;-71
2022/01/15 07:10:13;;;;;;;29.93;16.70;;;;;;;2.90;97.66;95231.88;5090257;28;20204;-70
2022/01/15 07:12:41;;;;;;;30.90;15.90;;;;;;;2.75;99.03;95253.00;5089325;28;20232;-70
2022/01/15 07:15:11;;;;;;;34.03;16.57;;;;;;;2.78;99.53;95254.47;5090421;28;20205;-69
2022/01/15 07:17:44;;;;;;;24.60;13.43;;;;;;;2.61;100.00;95250.22;5090050;28;20215;-70
2022/01/15 07:20:14;;;;;;;27.23;15.73;;;;;;;2.70;100.00;95267.28;5088972;28;20265;-71
2022/01/15 07:22:44;;;;;;;27.43;14.23;;;;;;;2.72;100.00;95258.44;5088277;28;20204;-70
2022/01/15 07:25:14;;;;;;;32.00;15.73;;;;;;;2.81;99.41;95266.97;5091260;28;20195;-71
2022/01/15 07:27:43;;;;;;;24.47;13.80;;;;;;;2.81;99.14;95261.84;5090317;28;20204;-70
2022/01/15 07:30:13;;;;;;;25.90;14.07;;;;;;;2.77;99.42;95293.94;5088919;28;20311;-70
2022/01/15 07:32:41;;;;;;;33.00;16.33;;;;;;;2.75;99.75;95285.56;5088265;28;20553;-69
2022/01/15 07:35:11;;;;;;;29.93;16.17;;;;;;;2.81;99.72;95297.78;5090253;28;20215;-70
2022/01/15 07:37:40;;;;;;;25.33;14.40;;;;;;;2.81;99.83;95297.78;5090667;28;20693;-71
2022/01/15 07:40:11;;;;;;;27.03;14.73;;;;;;;2.80;99.72;95309.81;5089515;28;20203;-75
2022/01/15 07:42:40;;;;;;;28.67;14.73;;;;;;;2.81;99.44;95296.03;5089233;28;20640;-71
2022/01/15 07:45:11;;;;;;;26.53;14.70;;;;;;;2.78;100.00;95292.94;5089634;28;20291;-70
2022/01/15 07:47:41;;;;;;;31.30;16.03;;;;;;;3.01;98.88;95298.31;5089754;28;20756;-70
2022/01/15 07:50:11;;;;;;;34.13;16.80;;;;;;;3.04;98.37;95300.59;5089933;28;20204;-70
2022/01/15 07:52:39;;;;;;;27.83;14.63;;;;;;;2.95;98.50;95312.59;5088578;28;20226;-79
2022/01/15 07:55:11;;;;;;;30.20;16.53;;;;;;;3.13;98.00;95303.03;5088556;28;20275;-76
2022/01/15 07:57:43;;;;;;;25.30;14.50;;;;;;;3.05;97.02;95303.00;5086865;28;20800;-75
2022/01/15 08:00:14;;;;;;;27.00;14.53;;;;;;;2.98;97.36;95307.16;5086101;28;20274;-74
2022/01/15 08:02:42;;;;;;;27.23;14.77;;;;;;;2.97;98.11;95308.13;5087576;28;20230;-74
2022/01/15 08:05:13;;;;;;;34.27;17.03;;;;;;;3.02;98.04;95315.34;5088762;28;20666;-75
2022/01/15 08:07:42;;;;;;;30.87;15.67;;;;;;;3.05;97.09;95318.41;5089216;28;20208;-75
2022/01/15 08:10:12;;;;;;;29.73;16.27;;;;;;;3.06;96.62;95307.16;5089072;28;20212;-75
2022/01/15 08:12:48;;;;;;;28.23;15.73;;;;;;;3.15;96.14;95321.63;5089198;28;20771;-75
2022/01/15 08:15:18;;;;;;;29.33;15.50;;;;;;;3.08;95.11;95322.44;5089448;28;20201;-75
2022/01/15 08:17:47;;;;;;;32.57;18.23;;;;;;;3.18;95.47;95328.22;5088991;28;20564;-75
2022/01/15 08:20:16;;;;;;;31.97;17.23;;;;;;;3.19;94.76;95358.09;5088672;28;20225;-76
2022/01/15 08:22:45;;;;;;;37.77;19.83;;;;;;;3.22;94.72;95363.72;5086205;28;20221;-76
2022/01/15 08:25:16;;;;;;;34.73;17.77;;;;;;;3.25;94.34;95350.56;5088645;28;20220;-76
2022/01/15 08:27:44;;;;;;;27.60;16.27;;;;;;;3.21;94.09;95351.84;5087574;28;20193;-76
2022/01/15 08:30:13;;;;;;;29.07;16.57;;;;;;;3.25;94.32;95352.34;5087111;28;20316;-74
2022/01/15 08:32:42;;;;;;;26.67;16.00;;;;;;;3.28;93.45;95344.31;5086346;28;20218;-75
2022/01/15 08:35:11;;;;;;;32.77;17.20;;;;;;;3.18;94.23;95351.34;5086102;28;20193;-75
2022/01/15 08:37:42;;;;;;;29.57;16.43;;;;;;;3.26;93.70;95359.09;5087668;28;20192;-74
2022/01/15 08:40:13;;;;;;;33.97;17.73;;;;;;;3.24;93.79;95353.28;5087116;28;20628;-76
2022/01/15 08:42:43;;;;;;;30.33;17.10;;;;;;;3.28;93.57;95355.41;5088125;28;20652;-76
2022/01/15 08:45:13;;;;;;;34.63;18.10;;;;;;;3.31;93.68;95369.69;5090024;28;20201;-78
2022/01/15 08:47:43;;;;;;;33.70;17.50;;;;;;;3.40;93.12;95374.72;5089628;28;20339;-79
2022/01/15 08:50:14;;;;;;;33.53;17.23;;;;;;;3.42;92.15;95379.69;5083634;28;20224;-78
2022/01/15 08:52:46;;;;;;;27.27;16.13;;;;;;;3.53;92.08;95383.72;5083649;28;20666;-79
2022/01/15 08:55:17;;;;;;;30.23;16.27;;;;;;;3.51;91.24;95381.31;5087869;28;20196;-86
2022/01/15 08:57:47;;;;;;;28.63;15.03;;;;;;;3.41;91.84;95378.88;5089764;28;20563;-86
2022/01/15 09:00:20;;;;;;;29.73;15.87;;;;;;;3.35;92.25;95389.75;5088780;28;20256;-82
2022/01/15 09:02:49;;;;;;;26.00;15.40;;;;;;;3.37;92.00;95392.19;5089181;28;20641;-78
2022/01/15 09:05:19;;;;;;;27.80;14.90;;;;;;;3.43;91.54;95394.91;5088457;28;20197;-80
2022/01/15 09:07:47;;;;;;;25.23;14.03;;;;;;;3.42;91.61;95395.91;5087663;28;20211;-80
2022/01/15 09:10:17;;;;;;;28.47;14.87;;;;;;;3.42;91.81;95398.47;5087524;28;20204;-81
2022/01/15 09:12:46;;;;;;;28.93;15.13;;;;;;;3.52;92.18;95400.09;5087627;28;20640;-81
2022/01/15 09:15:16;;;;;;;30.10;15.40;;;;;;;3.73;91.33;95387.63;5085772;28;20675;-78
2022/01/15 09:17:44;;;;;;;27.83;15.80;;;;;;;3.86;88.86;95398.25;5090023;28;20207;-86
2022/01/15 09:20:14;;;;;;;29.23;15.00;;;;;;;3.98;87.04;95391.84;5088837;28;20220;-77
2022/01/15 09:22:42;;;;;;;28.40;14.07;;;;;;;4.09;86.08;95394.09;5085369;28;20255;-85
2022/01/15 09:25:11;;;;;;;25.17;14.27;;;;;;;4.19;84.91;95404.22;5088885;28;20203;-86
2022/01/15 09:30:28;;;;;;;30.13;15.80;;;;;;;4.31;83.45;95396.03;5087781;28;20627;-79
2022/01/15 09:32:56;;;;;;;27.97;14.83;;;;;;;4.45;82.69;95394.56;5081842;28;20297;-79
2022/01/15 09:35:26;;;;;;;24.00;12.70;;;;;;;4.30;81.15;95389.28;5089392;28;20211;-82
2022/01/15 09:37:55;;;;;;;24.23;13.57;;;;;;;4.24;82.35;95391.69;5089478;28;20725;-79
2022/01/15 09:40:25;;;;;;;28.30;13.50;;;;;;;4.18;80.61;95374.34;5088465;28;20261;-81
2022/01/15 09:42:52;;;;;;;26.23;13.80;;;;;;;4.24;81.27;95374.47;5088335;28;20200;-80
2022/01/15 09:45:22;;;;;;;25.57;14.10;;;;;;;4.27;81.59;95366.44;5087758;28;20208;-80
2022/01/15 09:47:57;;;;;;;26.43;14.27;;;;;;;4.35;80.63;95384.47;5089177;28;20201;-79
2022/01/15 09:50:27;;;;;;;28.23;15.77;;;;;;;4.41;80.23;95367.56;5088289;28;20192;-80
2022/01/15 09:52:56;;;;;;;24.60;12.73;;;;;;;4.43;79.28;95369.03;5087759;28;20291;-82
2022/01/15 09:55:25;;;;;;;24.17;12.97;;;;;;;4.46;79.71;95353.25;5087447;28;20288;-79
2022/01/15 09:57:54;;;;;;;20.13;12.17;;;;;;;4.36;79.56;95370.63;5088229;28;20204;-79
2022/01/15 10:00:25;;;;;;;23.30;11.80;;;;;;;4.30;79.29;95375.63;5088504;28;20311;-80
2022/01/15 10:02:55;;;;;;;19.53;10.80;;;;;;;4.24;79.79;95377.03;5088206;28;20197;-80
2022/01/15 10:05:25;;;;;;;21.00;12.90;;;;;;;4.51;79.40;95381.88;5087808;28;20208;-81
2022/01/15 10:08:02;;;;;;;28.50;15.37;;;;;;;5.55;76.42;95390.25;5088136;28;20204;-80
2022/01/15 10:10:31;;;;;;;20.70;12.67;;;;;;;6.37;70.47;95393.94;5087916;28;20672;-80
2022/01/15 10:13:13;;;;;;;20.93;12.47;;;;;;;7.94;65.27;95393.50;5088495;28;20213;-80
2022/01/15 10:15:42;;;;;;;19.43;10.57;;;;;;;9.16;60.93;95394.13;5089135;28;20203;-83
2022/01/15 10:18:23;;;;;;;22.93;12.13;;;;;;;10.05;57.69;95396.50;5088531;28;20207;-82
2022/01/15 10:20:54;;;;;;;16.60;10.67;;;;;;;9.75;57.03;95389.25;5088802;28;20234;-83
2022/01/15 10:23:24;;;;;;;19.27;11.53;;;;;;;9.09;58.93;95381.91;5088590;28;20222;-84
2022/01/15 10:26:17;;;;;;;22.03;12.57;;;;;;;9.74;57.66;95377.25;5089189;28;20291;-83
2022/01/15 10:29:00;;;;;;;22.00;12.33;;;;;;;10.42;56.66;95394.44;5081906;28;20196;-82
2022/01/15 10:31:29;;;;;;;19.53;11.83;;;;;;;10.42;56.90;95382.22;5088631;28;20201;-86
2022/01/15 10:34:00;;;;;;;19.57;10.90;;;;;;;10.74;56.23;95388.44;5088326;28;20213;-82
2022/01/15 10:36:32;;;;;;;20.90;12.40;;;;;;;11.60;54.34;95386.50;5087795;28;20216;-83
2022/01/15 10:39:15;;;;;;;16.93;10.77;;;;;;;11.21;53.78;95379.56;5087736;28;20600;-80
2022/01/15 10:41:43;;;;;;;25.73;13.10;;;;;;;10.56;56.08;95372.66;5088071;28;20284;-80
2022/01/15 10:44:29;;;;;;;18.30;10.87;;;;;;;10.71;55.20;95373.22;5087883;28;20637;-80
2022/01/15 10:47:04;;;;;;;16.93;11.00;;;;;;;10.94;55.20;95381.41;5087668;28;20204;-80
2022/01/15 10:49:37;;;;;;;18.73;11.10;;;;;;;11.67;52.21;95369.03;5088359;28;20227;-80
2022/01/15 10:52:17;;;;;;;16.70;10.90;;;;;;;10.99;53.59;95371.22;5088224;28;20204;-80
2022/01/15 10:55:01;;;;;;;18.93;10.77;;;;;;;10.26;54.51;95367.03;5086891;28;20273;-80
2022/01/15 10:57:34;;;;;;;19.73;10.90;;;;;;;8.57;58.32;95365.22;5088694;28;20614;-81
2022/01/15 11:00:08;;;;;;;17.60;10.50;;;;;;;8.14;60.22;95364.44;5082182;28;20217;-79
2022/01/15 11:02:38;;;;;;;18.23;10.43;;;;;;;8.39;60.36;95373.44;5088253;28;20284;-81
2022/01/15 11:05:22;;;;;;;20.27;11.73;;;;;;;8.38;60.33;95372.63;5088678;28;20207;-80
2022/01/15 11:07:51;;;;;;;19.73;11.40;;;;;;;7.67;61.64;95372.69;5091890;28;20238;-80
2022/01/15 11:10:20;;;;;;;22.37;11.70;;;;;;;7.06;63.95;95372.16;5092996;28;20203;-80
2022/01/15 11:12:48;;;;;;;23.00;12.80;;;;;;;6.51;66.04;95361.41;5092405;28;21027;-79
2022/01/15 11:15:16;;;;;;;20.10;12.20;;;;;;;6.12;67.52;95377.03;5093838;28;20306;-79
2022/01/15 11:17:45;;;;;;;23.63;12.63;;;;;;;5.83;69.23;95364.78;5094396;28;20743;-81
2022/01/15 11:20:21;;;;;;;24.27;12.17;;;;;;;5.67;70.03;95359.72;5092192;28;20223;-80
2022/01/15 11:22:50;;;;;;;22.77;11.83;;;;;;;5.49;70.35;95366.91;5087213;28;20198;-80
2022/01/15 11:25:18;;;;;;;21.27;11.70;;;;;;;5.29;71.32;95366.53;5092294;28;20241;-80
2022/01/15 11:27:48;;;;;;;24.77;13.10;;;;;;;5.28;72.31;95357.19;5092075;28;20209;-80
2022/01/15 11:30:15;;;;;;;28.03;14.30;;;;;;;5.22;72.42;95339.84;5093645;28;20258;-80
2022/01/15 11:32:45;;;;;;;25.13;13.07;;;;;;;5.58;71.51;95342.69;5101555;28;20205;-80
2022/01/15 11:35:15;;;;;;;22.67;12.70;;;;;;;6.98;68.63;95348.19;5109826;28;20196;-80
2022/01/15 11:37:49;;;;;;;21.10;12.37;;;;;;;8.52;63.16;95352.81;5107994;28;20241;-79
2022/01/15 11:40:38;;;;;;;21.93;12.63;;;;;;;10.29;57.99;95350.22;5105407;28;20263;-80
2022/01/15 11:43:40;;;;;;;24.03;13.20;;;;;;;11.21;53.64;95358.75;5105469;28;20204;-80
2022/01/15 11:46:24;;;;;;;18.73;9.70;;;;;;;11.89;51.66;95360.72;5089013;28;20192;-79
2022/01/15 11:48:52;;;;;;;17.97;10.93;;;;;;;12.68;49.55;95355.00;5091642;28;20205;-79
2022/01/15 11:51:28;;;;;;;25.50;12.77;;;;;;;12.08;49.59;95361.66;5091705;28;20233;-80
2022/01/15 11:54:00;;;;;;;17.90;11.13;;;;;;;11.94;49.96;95363.53;5091663;28;20196;-79
2022/01/15 11:56:32;;;;;;;20.43;10.90;;;;;;;12.86;49.18;95365.50;5091128;28;20200;-79